Granville, NY

9:06 AM EST on February 01, 2015 (GMT -0500)
Morse State | Change Station
CLOSE
Current Station
Airport
Location: Bennington,
Elevation: 827 ft
Nearby Weather Stations
Active Advisory: Winter Storm Warning

Elev 827 ft 42.89 °N, 73.25 °W | Updated 12 minutes ago

Overcast
Overcast
15 °F
Feels Like 15 °F
N
0
Wind Variable Wind from North

Today
High -- | Low -- °F
--% Chance of Precip.
Yesterday
High -- | Low -- °F
Precip. -- in
7:09 AM 5:04 PM
Waxing Gibbous, 95% visible
Pressure 30.18 in
Visibility 10.0 miles
Clouds Overcast 2800 ft
Dew Point 9 °F
Humidity 77%
Rainfall 0.00 in
Snow Depth Not available.
UV 0 out of 12
Pollen .10 out of 12
Air Quality Not available.
Flu Activity Not available.
METAR KDDH 011354Z AUTO 00000KT 10SM OVC028 M09/M13 A3013 RMK AO2 SLP220 T10941128

More Conditions Fewer Conditions

Pressure 30.18 in
Visibility 10.0 miles
Clouds Overcast 2800 ft
Dew Point 9 °F
Humidity 77%
Rainfall 0.00 in
Snow Depth Not available.
UV 0 out of 12
Pollen .10 out of 12
Air Quality Not available.
Flu Activity Not available.
METAR KDDH 011354Z AUTO 00000KT 10SM OVC028 M09/M13 A3013 RMK AO2 SLP220 T10941128

More Conditions Fewer Conditions

10-Day Weather Forecast

Almanac

Astronomy

Feb. 01, 2015 Rise Set
Actual Time
Civil Twilight
Nautical Twilight
Astronomical Twilight
Moon
Length of Visible Light
Length of Day
Tomorrow will be .
, % of the Moon is Illuminated

Today's Extremes

State Highs State Lows

Community

WunderPhotos

Upload Photos

1,792,363 photos uploaded!

WunderBlogs® & News

Nearby

Air Quality

  Air Quality AQ Index Pollutant
Not available.

Snow Depth

Station Depth Elevation

Earthquake Activity

City Distance Mag. Time & Date
Minimum magnitude displayed is 2.5.

Coastal Water Temperatures

Place Temperature

Nearby Weather Stations